sensor_id;sensor_type;location;lat;lon;timestamp;temperature;humidity
5164;DHT22;2601;50.224;10.126;2023-05-02T00:00:08;16.60;94.40
5164;DHT22;2601;50.224;10.126;2023-05-02T00:02:34;16.60;94.40
5164;DHT22;2601;50.224;10.126;2023-05-02T00:04:59;16.60;94.40
5164;DHT22;2601;50.224;10.126;2023-05-02T00:07:25;16.60;94.40
5164;DHT22;2601;50.224;10.126;2023-05-02T00:09:51;16.60;94.40
5164;DHT22;2601;50.224;10.126;2023-05-02T00:12:17;16.60;94.40
5164;DHT22;2601;50.224;10.126;2023-05-02T00:14:42;16.60;94.40
5164;DHT22;2601;50.224;10.126;2023-05-02T00:17:08;16.60;94.40
5164;DHT22;2601;50.224;10.126;2023-05-02T00:19:39;16.60;94.40
5164;DHT22;2601;50.224;10.126;2023-05-02T00:22:05;16.60;94.40
5164;DHT22;2601;50.224;10.126;2023-05-02T00:24:31;16.60;94.40
5164;DHT22;2601;50.224;10.126;2023-05-02T00:26:57;16.60;94.40
5164;DHT22;2601;50.224;10.126;2023-05-02T00:29:22;16.60;94.40
5164;DHT22;2601;50.224;10.126;2023-05-02T00:31:48;16.60;94.40
5164;DHT22;2601;50.224;10.126;2023-05-02T00:34:14;16.60;94.40
5164;DHT22;2601;50.224;10.126;2023-05-02T00:36:39;16.60;94.70
5164;DHT22;2601;50.224;10.126;2023-05-02T00:39:05;16.60;94.40
5164;DHT22;2601;50.224;10.126;2023-05-02T00:41:31;16.60;94.40
5164;DHT22;2601;50.224;10.126;2023-05-02T00:43:57;16.60;94.40
5164;DHT22;2601;50.224;10.126;2023-05-02T00:46:22;16.60;94.40
5164;DHT22;2601;50.224;10.126;2023-05-02T00:48:49;16.60;94.40
5164;DHT22;2601;50.224;10.126;2023-05-02T00:51:15;16.60;94.40
5164;DHT22;2601;50.224;10.126;2023-05-02T00:53:40;16.60;94.40
5164;DHT22;2601;50.224;10.126;2023-05-02T00:56:07;16.60;94.40
5164;DHT22;2601;50.224;10.126;2023-05-02T00:58:33;16.60;94.40
5164;DHT22;2601;50.224;10.126;2023-05-02T01:07:01;16.60;94.40
5164;DHT22;2601;50.224;10.126;2023-05-02T01:12:32;16.60;94.40
5164;DHT22;2601;50.224;10.126;2023-05-02T01:15:05;16.60;94.40
5164;DHT22;2601;50.224;10.126;2023-05-02T01:17:32;16.60;94.40
5164;DHT22;2601;50.224;10.126;2023-05-02T01:20:02;16.60;94.40
5164;DHT22;2601;50.224;10.126;2023-05-02T01:22:29;16.60;94.30
5164;DHT22;2601;50.224;10.126;2023-05-02T01:25:31;16.60;94.30
5164;DHT22;2601;50.224;10.126;2023-05-02T01:30:49;16.60;94.40
5164;DHT22;2601;50.224;10.126;2023-05-02T01:33:16;16.60;94.40
5164;DHT22;2601;50.224;10.126;2023-05-02T01:35:45;16.60;94.40
5164;DHT22;2601;50.224;10.126;2023-05-02T01:38:14;16.60;94.40
5164;DHT22;2601;50.224;10.126;2023-05-02T01:40:44;16.60;94.40
5164;DHT22;2601;50.224;10.126;2023-05-02T01:43:11;16.60;94.30
5164;DHT22;2601;50.224;10.126;2023-05-02T01:45:40;16.60;94.30
5164;DHT22;2601;50.224;10.126;2023-05-02T01:48:08;16.60;94.30
5164;DHT22;2601;50.224;10.126;2023-05-02T01:50:35;16.60;94.30
5164;DHT22;2601;50.224;10.126;2023-05-02T01:53:02;16.60;94.30
5164;DHT22;2601;50.224;10.126;2023-05-02T01:55:28;16.60;94.30
5164;DHT22;2601;50.224;10.126;2023-05-02T01:57:55;16.60;94.30
5164;DHT22;2601;50.224;10.126;2023-05-02T02:00:23;16.60;94.30
5164;DHT22;2601;50.224;10.126;2023-05-02T02:02:50;16.60;94.30
5164;DHT22;2601;50.224;10.126;2023-05-02T02:05:17;16.60;94.30
5164;DHT22;2601;50.224;10.126;2023-05-02T02:07:43;16.60;94.30
5164;DHT22;2601;50.224;10.126;2023-05-02T02:10:09;16.60;94.30
5164;DHT22;2601;50.224;10.126;2023-05-02T02:12:41;16.60;94.30
5164;DHT22;2601;50.224;10.126;2023-05-02T02:15:26;16.60;94.30
5164;DHT22;2601;50.224;10.126;2023-05-02T02:18:01;16.60;94.30
5164;DHT22;2601;50.224;10.126;2023-05-02T02:20:30;16.60;94.30
5164;DHT22;2601;50.224;10.126;2023-05-02T02:22:59;16.60;94.30
5164;DHT22;2601;50.224;10.126;2023-05-02T02:25:25;16.60;94.30
5164;DHT22;2601;50.224;10.126;2023-05-02T02:27:52;16.60;94.30
5164;DHT22;2601;50.224;10.126;2023-05-02T02:30:17;16.50;94.20
5164;DHT22;2601;50.224;10.126;2023-05-02T02:32:43;16.60;94.30
5164;DHT22;2601;50.224;10.126;2023-05-02T02:35:09;16.60;94.30
5164;DHT22;2601;50.224;10.126;2023-05-02T02:38:00;16.60;94.30
5164;DHT22;2601;50.224;10.126;2023-05-02T02:40:46;16.60;94.30
5164;DHT22;2601;50.224;10.126;2023-05-02T02:43:26;16.60;94.30
5164;DHT22;2601;50.224;10.126;2023-05-02T02:51:50;16.60;94.30
5164;DHT22;2601;50.224;10.126;2023-05-02T02:54:28;16.60;94.30
5164;DHT22;2601;50.224;10.126;2023-05-02T02:57:13;16.60;94.30
5164;DHT22;2601;50.224;10.126;2023-05-02T02:59:45;16.60;94.20
5164;DHT22;2601;50.224;10.126;2023-05-02T03:02:14;16.60;94.20
5164;DHT22;2601;50.224;10.126;2023-05-02T03:04:42;16.50;94.20
5164;DHT22;2601;50.224;10.126;2023-05-02T03:07:09;16.50;94.20
5164;DHT22;2601;50.224;10.126;2023-05-02T03:09:41;16.60;94.20
5164;DHT22;2601;50.224;10.126;2023-05-02T03:12:07;16.60;94.20
5164;DHT22;2601;50.224;10.126;2023-05-02T03:14:32;16.50;94.10
5164;DHT22;2601;50.224;10.126;2023-05-02T03:16:58;16.60;94.20
5164;DHT22;2601;50.224;10.126;2023-05-02T03:19:24;16.50;94.20
5164;DHT22;2601;50.224;10.126;2023-05-02T03:21:49;16.60;94.50
5164;DHT22;2601;50.224;10.126;2023-05-02T03:24:15;16.50;94.20
5164;DHT22;2601;50.224;10.126;2023-05-02T03:26:41;16.50;94.20
5164;DHT22;2601;50.224;10.126;2023-05-02T03:29:06;16.60;94.20
5164;DHT22;2601;50.224;10.126;2023-05-02T03:31:32;16.50;94.20
5164;DHT22;2601;50.224;10.126;2023-05-02T03:33:58;16.50;94.20
5164;DHT22;2601;50.224;10.126;2023-05-02T03:36:23;16.50;94.20
5164;DHT22;2601;50.224;10.126;2023-05-02T03:38:49;16.50;94.20
5164;DHT22;2601;50.224;10.126;2023-05-02T03:41:15;16.50;94.20
5164;DHT22;2601;50.224;10.126;2023-05-02T03:43:40;16.50;94.20
5164;DHT22;2601;50.224;10.126;2023-05-02T03:46:08;16.50;94.20
5164;DHT22;2601;50.224;10.126;2023-05-02T03:48:34;16.50;94.20
5164;DHT22;2601;50.224;10.126;2023-05-02T03:51:01;16.50;94.20
5164;DHT22;2601;50.224;10.126;2023-05-02T03:53:28;16.50;94.20
5164;DHT22;2601;50.224;10.126;2023-05-02T03:55:54;16.50;94.20
5164;DHT22;2601;50.224;10.126;2023-05-02T03:58:19;16.60;94.20
5164;DHT22;2601;50.224;10.126;2023-05-02T04:00:45;16.60;94.20
5164;DHT22;2601;50.224;10.126;2023-05-02T04:03:11;16.50;94.20
5164;DHT22;2601;50.224;10.126;2023-05-02T04:05:36;16.50;94.20
5164;DHT22;2601;50.224;10.126;2023-05-02T04:08:02;16.50;94.20
5164;DHT22;2601;50.224;10.126;2023-05-02T04:10:28;16.50;94.10
5164;DHT22;2601;50.224;10.126;2023-05-02T04:12:53;16.50;94.10
5164;DHT22;2601;50.224;10.126;2023-05-02T04:15:19;16.50;94.10
5164;DHT22;2601;50.224;10.126;2023-05-02T04:17:45;16.60;94.20
5164;DHT22;2601;50.224;10.126;2023-05-02T04:20:11;16.60;94.10
5164;DHT22;2601;50.224;10.126;2023-05-02T04:22:37;16.50;94.10
5164;DHT22;2601;50.224;10.126;2023-05-02T04:25:06;16.50;94.10
5164;DHT22;2601;50.224;10.126;2023-05-02T04:27:32;16.50;94.10
5164;DHT22;2601;50.224;10.126;2023-05-02T04:29:57;16.50;94.10
5164;DHT22;2601;50.224;10.126;2023-05-02T04:32:23;16.50;94.10
5164;DHT22;2601;50.224;10.126;2023-05-02T04:34:49;16.50;94.10
5164;DHT22;2601;50.224;10.126;2023-05-02T04:37:15;16.50;94.10
5164;DHT22;2601;50.224;10.126;2023-05-02T04:39:40;16.50;94.10
5164;DHT22;2601;50.224;10.126;2023-05-02T04:42:06;16.50;94.10
5164;DHT22;2601;50.224;10.126;2023-05-02T04:44:31;16.60;94.10
5164;DHT22;2601;50.224;10.126;2023-05-02T04:46:57;16.50;94.10
5164;DHT22;2601;50.224;10.126;2023-05-02T04:49:23;16.60;94.10
5164;DHT22;2601;50.224;10.126;2023-05-02T04:51:48;16.50;94.10
5164;DHT22;2601;50.224;10.126;2023-05-02T04:54:16;16.50;94.10
5164;DHT22;2601;50.224;10.126;2023-05-02T04:56:41;16.50;94.20
5164;DHT22;2601;50.224;10.126;2023-05-02T04:59:08;16.50;94.50
5164;DHT22;2601;50.224;10.126;2023-05-02T05:01:33;16.50;94.20
5164;DHT22;2601;50.224;10.126;2023-05-02T05:03:59;16.50;94.10
5164;DHT22;2601;50.224;10.126;2023-05-02T05:06:25;16.50;94.20
5164;DHT22;2601;50.224;10.126;2023-05-02T05:08:51;16.50;94.20
5164;DHT22;2601;50.224;10.126;2023-05-02T05:11:16;16.50;94.20
5164;DHT22;2601;50.224;10.126;2023-05-02T05:13:43;16.50;94.20
5164;DHT22;2601;50.224;10.126;2023-05-02T05:16:08;16.50;94.20
5164;DHT22;2601;50.224;10.126;2023-05-02T05:18:34;16.50;94.20
5164;DHT22;2601;50.224;10.126;2023-05-02T05:21:07;16.50;94.20
5164;DHT22;2601;50.224;10.126;2023-05-02T05:23:33;16.50;94.20
5164;DHT22;2601;50.224;10.126;2023-05-02T05:26:09;16.50;94.20
5164;DHT22;2601;50.224;10.126;2023-05-02T05:28:35;16.50;94.30
5164;DHT22;2601;50.224;10.126;2023-05-02T05:31:08;16.50;94.30
5164;DHT22;2601;50.224;10.126;2023-05-02T05:33:34;16.50;94.30
5164;DHT22;2601;50.224;10.126;2023-05-02T05:36:05;16.50;94.30
5164;DHT22;2601;50.224;10.126;2023-05-02T05:38:30;16.50;94.30
5164;DHT22;2601;50.224;10.126;2023-05-02T05:40:56;16.50;94.30
5164;DHT22;2601;50.224;10.126;2023-05-02T05:43:22;16.50;94.40
5164;DHT22;2601;50.224;10.126;2023-05-02T05:45:48;16.50;94.40
5164;DHT22;2601;50.224;10.126;2023-05-02T05:48:15;16.50;94.40
5164;DHT22;2601;50.224;10.126;2023-05-02T05:50:41;16.50;94.40
5164;DHT22;2601;50.224;10.126;2023-05-02T05:53:06;16.50;94.40
5164;DHT22;2601;50.224;10.126;2023-05-02T05:55:32;16.50;94.40
5164;DHT22;2601;50.224;10.126;2023-05-02T05:57:57;16.40;94.40
5164;DHT22;2601;50.224;10.126;2023-05-02T06:00:23;16.40;94.40
5164;DHT22;2601;50.224;10.126;2023-05-02T06:02:49;16.50;94.40
5164;DHT22;2601;50.224;10.126;2023-05-02T06:05:14;16.50;94.50
5164;DHT22;2601;50.224;10.126;2023-05-02T06:07:40;16.50;94.50
5164;DHT22;2601;50.224;10.126;2023-05-02T06:10:06;16.40;94.50
5164;DHT22;2601;50.224;10.126;2023-05-02T06:12:32;16.50;94.50
5164;DHT22;2601;50.224;10.126;2023-05-02T06:14:58;16.40;94.50
5164;DHT22;2601;50.224;10.126;2023-05-02T06:17:23;16.50;94.60
5164;DHT22;2601;50.224;10.126;2023-05-02T06:19:49;16.50;94.60
5164;DHT22;2601;50.224;10.126;2023-05-02T06:22:15;16.50;94.50
5164;DHT22;2601;50.224;10.126;2023-05-02T06:24:40;16.50;94.50
5164;DHT22;2601;50.224;10.126;2023-05-02T06:27:06;16.40;94.50
5164;DHT22;2601;50.224;10.126;2023-05-02T06:29:31;16.50;94.50
5164;DHT22;2601;50.224;10.126;2023-05-02T06:31:57;16.40;94.50
5164;DHT22;2601;50.224;10.126;2023-05-02T06:34:23;16.50;94.50
5164;DHT22;2601;50.224;10.126;2023-05-02T06:36:48;16.50;94.90
5164;DHT22;2601;50.224;10.126;2023-05-02T06:39:18;16.50;94.80
5164;DHT22;2601;50.224;10.126;2023-05-02T06:41:43;16.50;94.50
5164;DHT22;2601;50.224;10.126;2023-05-02T06:44:09;16.50;94.50
5164;DHT22;2601;50.224;10.126;2023-05-02T06:46:34;16.50;94.50
5164;DHT22;2601;50.224;10.126;2023-05-02T06:49:00;16.50;94.50
5164;DHT22;2601;50.224;10.126;2023-05-02T06:51:25;16.50;94.60
5164;DHT22;2601;50.224;10.126;2023-05-02T06:53:52;16.50;94.50
5164;DHT22;2601;50.224;10.126;2023-05-02T06:56:17;16.50;94.40
5164;DHT22;2601;50.224;10.126;2023-05-02T06:58:43;16.50;94.40
5164;DHT22;2601;50.224;10.126;2023-05-02T07:01:08;16.50;94.50
5164;DHT22;2601;50.224;10.126;2023-05-02T07:03:34;16.50;94.50
5164;DHT22;2601;50.224;10.126;2023-05-02T07:05:59;16.50;94.40
5164;DHT22;2601;50.224;10.126;2023-05-02T07:08:25;16.50;94.60
5164;DHT22;2601;50.224;10.126;2023-05-02T07:10:51;16.50;94.50
5164;DHT22;2601;50.224;10.126;2023-05-02T07:13:16;16.50;94.50
5164;DHT22;2601;50.224;10.126;2023-05-02T07:15:42;16.50;94.50
5164;DHT22;2601;50.224;10.126;2023-05-02T07:18:07;16.40;94.40
5164;DHT22;2601;50.224;10.126;2023-05-02T07:20:33;16.50;94.50
5164;DHT22;2601;50.224;10.126;2023-05-02T07:22:58;16.50;94.50
5164;DHT22;2601;50.224;10.126;2023-05-02T07:25:24;16.50;94.50
5164;DHT22;2601;50.224;10.126;2023-05-02T07:27:50;16.50;94.50
5164;DHT22;2601;50.224;10.126;2023-05-02T07:30:15;16.50;94.60
5164;DHT22;2601;50.224;10.126;2023-05-02T07:32:41;16.50;94.70
5164;DHT22;2601;50.224;10.126;2023-05-02T07:35:07;16.50;94.80
5164;DHT22;2601;50.224;10.126;2023-05-02T07:37:33;16.50;94.80
5164;DHT22;2601;50.224;10.126;2023-05-02T07:39:59;16.40;94.70
5164;DHT22;2601;50.224;10.126;2023-05-02T07:42:29;16.50;94.80
5164;DHT22;2601;50.224;10.126;2023-05-02T07:44:54;16.40;94.80
5164;DHT22;2601;50.224;10.126;2023-05-02T07:47:20;16.40;94.80
5164;DHT22;2601;50.224;10.126;2023-05-02T07:49:50;16.50;94.90
5164;DHT22;2601;50.224;10.126;2023-05-02T07:52:16;16.40;94.80
5164;DHT22;2601;50.224;10.126;2023-05-02T07:54:41;16.50;94.90
5164;DHT22;2601;50.224;10.126;2023-05-02T07:57:07;16.50;94.90
5164;DHT22;2601;50.224;10.126;2023-05-02T07:59:33;16.50;95.00
5164;DHT22;2601;50.224;10.126;2023-05-02T08:01:58;16.50;95.30
5164;DHT22;2601;50.224;10.126;2023-05-02T08:04:25;16.50;95.30
5164;DHT22;2601;50.224;10.126;2023-05-02T08:06:50;16.50;95.30
5164;DHT22;2601;50.224;10.126;2023-05-02T08:09:16;16.50;95.30
5164;DHT22;2601;50.224;10.126;2023-05-02T08:11:42;16.50;95.20
5164;DHT22;2601;50.224;10.126;2023-05-02T08:14:07;16.50;95.20
5164;DHT22;2601;50.224;10.126;2023-05-02T08:16:33;16.50;95.20
5164;DHT22;2601;50.224;10.126;2023-05-02T08:18:59;16.50;95.20
5164;DHT22;2601;50.224;10.126;2023-05-02T08:21:25;16.50;95.40
5164;DHT22;2601;50.224;10.126;2023-05-02T08:23:57;16.50;95.40
5164;DHT22;2601;50.224;10.126;2023-05-02T08:26:22;16.50;95.30
5164;DHT22;2601;50.224;10.126;2023-05-02T08:28:50;16.50;95.30
5164;DHT22;2601;50.224;10.126;2023-05-02T08:31:16;16.60;95.30
5164;DHT22;2601;50.224;10.126;2023-05-02T08:33:42;16.60;95.40
5164;DHT22;2601;50.224;10.126;2023-05-02T08:36:15;16.60;95.30
5164;DHT22;2601;50.224;10.126;2023-05-02T08:38:42;16.60;95.20
5164;DHT22;2601;50.224;10.126;2023-05-02T08:41:15;16.60;95.20
5164;DHT22;2601;50.224;10.126;2023-05-02T08:43:42;16.60;94.90
5164;DHT22;2601;50.224;10.126;2023-05-02T08:46:09;16.60;94.80
5164;DHT22;2601;50.224;10.126;2023-05-02T08:48:37;16.60;94.70
5164;DHT22;2601;50.224;10.126;2023-05-02T08:51:03;16.70;94.70
5164;DHT22;2601;50.224;10.126;2023-05-02T08:53:34;16.70;94.60
5164;DHT22;2601;50.224;10.126;2023-05-02T08:56:00;16.70;94.60
5164;DHT22;2601;50.224;10.126;2023-05-02T08:58:26;16.70;94.50
5164;DHT22;2601;50.224;10.126;2023-05-02T09:00:52;16.70;94.40
5164;DHT22;2601;50.224;10.126;2023-05-02T09:08:26;16.70;94.30
5164;DHT22;2601;50.224;10.126;2023-05-02T09:10:52;16.80;94.40
5164;DHT22;2601;50.224;10.126;2023-05-02T09:16:04;16.80;94.30
5164;DHT22;2601;50.224;10.126;2023-05-02T09:18:37;16.70;94.30
5164;DHT22;2601;50.224;10.126;2023-05-02T09:21:14;16.80;94.30
5164;DHT22;2601;50.224;10.126;2023-05-02T09:23:45;16.80;94.90
5164;DHT22;2601;50.224;10.126;2023-05-02T09:26:22;16.80;94.90
5164;DHT22;2601;50.224;10.126;2023-05-02T09:28:53;16.70;94.90
5164;DHT22;2601;50.224;10.126;2023-05-02T09:31:22;16.70;94.90
5164;DHT22;2601;50.224;10.126;2023-05-02T09:33:51;16.70;95.00
5164;DHT22;2601;50.224;10.126;2023-05-02T09:36:18;16.70;94.90
5164;DHT22;2601;50.224;10.126;2023-05-02T09:38:48;16.70;94.90
5164;DHT22;2601;50.224;10.126;2023-05-02T09:41:14;16.70;94.90
5164;DHT22;2601;50.224;10.126;2023-05-02T09:43:42;16.70;94.80
5164;DHT22;2601;50.224;10.126;2023-05-02T09:46:09;16.70;94.90
5164;DHT22;2601;50.224;10.126;2023-05-02T09:49:04;16.70;94.80
5164;DHT22;2601;50.224;10.126;2023-05-02T09:51:29;16.70;94.80
5164;DHT22;2601;50.224;10.126;2023-05-02T09:53:55;16.70;94.80
5164;DHT22;2601;50.224;10.126;2023-05-02T09:56:21;16.70;94.80
5164;DHT22;2601;50.224;10.126;2023-05-02T09:58:46;16.70;94.90
5164;DHT22;2601;50.224;10.126;2023-05-02T10:01:16;16.70;94.80
5164;DHT22;2601;50.224;10.126;2023-05-02T10:03:45;16.70;94.80
5164;DHT22;2601;50.224;10.126;2023-05-02T10:06:11;16.70;94.80
5164;DHT22;2601;50.224;10.126;2023-05-02T10:08:38;16.70;94.90
5164;DHT22;2601;50.224;10.126;2023-05-02T10:11:06;16.70;94.90
5164;DHT22;2601;50.224;10.126;2023-05-02T10:13:32;16.70;94.90
5164;DHT22;2601;50.224;10.126;2023-05-02T10:16:01;16.70;94.90
5164;DHT22;2601;50.224;10.126;2023-05-02T10:21:10;16.70;94.90
5164;DHT22;2601;50.224;10.126;2023-05-02T10:23:40;16.70;94.90
5164;DHT22;2601;50.224;10.126;2023-05-02T10:26:06;16.70;94.90
5164;DHT22;2601;50.224;10.126;2023-05-02T10:28:32;16.70;95.00
5164;DHT22;2601;50.224;10.126;2023-05-02T10:30:59;16.70;94.90
5164;DHT22;2601;50.224;10.126;2023-05-02T10:33:26;16.70;94.90
5164;DHT22;2601;50.224;10.126;2023-05-02T10:35:52;16.70;94.90
5164;DHT22;2601;50.224;10.126;2023-05-02T10:38:20;16.70;94.90
5164;DHT22;2601;50.224;10.126;2023-05-02T10:40:54;16.60;94.90
5164;DHT22;2601;50.224;10.126;2023-05-02T10:43:26;16.60;94.90
5164;DHT22;2601;50.224;10.126;2023-05-02T10:45:53;16.70;94.90
5164;DHT22;2601;50.224;10.126;2023-05-02T10:48:23;16.70;95.00
5164;DHT22;2601;50.224;10.126;2023-05-02T10:50:57;16.60;95.00
5164;DHT22;2601;50.224;10.126;2023-05-02T10:53:30;16.60;95.20
5164;DHT22;2601;50.224;10.126;2023-05-02T10:56:19;16.60;95.00
5164;DHT22;2601;50.224;10.126;2023-05-02T10:58:51;16.70;95.00
5164;DHT22;2601;50.224;10.126;2023-05-02T11:06:26;16.70;95.00
5164;DHT22;2601;50.224;10.126;2023-05-02T11:08:59;16.70;95.00
5164;DHT22;2601;50.224;10.126;2023-05-02T11:11:45;16.70;94.90
5164;DHT22;2601;50.224;10.126;2023-05-02T11:24:47;16.60;94.90
5164;DHT22;2601;50.224;10.126;2023-05-02T11:30:07;16.70;95.00
5164;DHT22;2601;50.224;10.126;2023-05-02T11:35:22;16.70;94.90
5164;DHT22;2601;50.224;10.126;2023-05-02T11:37:55;16.70;94.90
5164;DHT22;2601;50.224;10.126;2023-05-02T11:40:21;16.70;95.00
5164;DHT22;2601;50.224;10.126;2023-05-02T11:42:47;16.70;94.90
5164;DHT22;2601;50.224;10.126;2023-05-02T11:45:13;16.70;94.90
5164;DHT22;2601;50.224;10.126;2023-05-02T11:47:39;16.70;95.00
5164;DHT22;2601;50.224;10.126;2023-05-02T11:50:06;16.60;94.90
5164;DHT22;2601;50.224;10.126;2023-05-02T11:52:39;16.60;94.90
5164;DHT22;2601;50.224;10.126;2023-05-02T11:55:06;16.70;94.90
5164;DHT22;2601;50.224;10.126;2023-05-02T11:57:34;16.70;94.90
5164;DHT22;2601;50.224;10.126;2023-05-02T11:59:59;16.70;94.90
5164;DHT22;2601;50.224;10.126;2023-05-02T12:02:42;16.70;94.90
5164;DHT22;2601;50.224;10.126;2023-05-02T12:05:10;16.70;94.90
5164;DHT22;2601;50.224;10.126;2023-05-02T12:07:41;16.70;94.90
5164;DHT22;2601;50.224;10.126;2023-05-02T12:10:08;16.60;94.90
5164;DHT22;2601;50.224;10.126;2023-05-02T12:12:34;16.60;94.90
5164;DHT22;2601;50.224;10.126;2023-05-02T12:15:05;16.70;94.90
5164;DHT22;2601;50.224;10.126;2023-05-02T12:17:33;16.70;94.90
5164;DHT22;2601;50.224;10.126;2023-05-02T12:19:59;16.70;94.90
5164;DHT22;2601;50.224;10.126;2023-05-02T12:22:27;16.70;94.90
5164;DHT22;2601;50.224;10.126;2023-05-02T12:24:53;16.60;94.90
5164;DHT22;2601;50.224;10.126;2023-05-02T12:27:19;16.60;94.90
5164;DHT22;2601;50.224;10.126;2023-05-02T12:29:46;16.70;94.90
5164;DHT22;2601;50.224;10.126;2023-05-02T12:32:13;16.70;94.90
5164;DHT22;2601;50.224;10.126;2023-05-02T12:34:39;16.70;94.90
5164;DHT22;2601;50.224;10.126;2023-05-02T12:37:07;16.70;94.90
5164;DHT22;2601;50.224;10.126;2023-05-02T12:39:42;16.70;94.90
5164;DHT22;2601;50.224;10.126;2023-05-02T12:42:14;16.70;94.90
5164;DHT22;2601;50.224;10.126;2023-05-02T12:44:45;16.70;94.90
5164;DHT22;2601;50.224;10.126;2023-05-02T12:47:15;16.70;94.80
5164;DHT22;2601;50.224;10.126;2023-05-02T12:49:57;16.70;94.90
5164;DHT22;2601;50.224;10.126;2023-05-02T12:52:51;16.60;94.90
5164;DHT22;2601;50.224;10.126;2023-05-02T12:55:25;16.60;94.90
5164;DHT22;2601;50.224;10.126;2023-05-02T12:58:09;16.60;94.90
5164;DHT22;2601;50.224;10.126;2023-05-02T13:00:37;16.60;94.90
5164;DHT22;2601;50.224;10.126;2023-05-02T13:03:03;16.60;95.00
5164;DHT22;2601;50.224;10.126;2023-05-02T13:05:29;16.60;94.90
5164;DHT22;2601;50.224;10.126;2023-05-02T13:07:55;16.60;94.90
5164;DHT22;2601;50.224;10.126;2023-05-02T13:10:22;16.60;94.90
5164;DHT22;2601;50.224;10.126;2023-05-02T13:12:49;16.60;94.90
5164;DHT22;2601;50.224;10.126;2023-05-02T13:15:15;16.60;94.90
5164;DHT22;2601;50.224;10.126;2023-05-02T13:17:40;16.60;95.20
5164;DHT22;2601;50.224;10.126;2023-05-02T13:20:07;16.60;94.90
5164;DHT22;2601;50.224;10.126;2023-05-02T13:22:34;16.60;94.90
5164;DHT22;2601;50.224;10.126;2023-05-02T13:25:00;16.60;94.90
5164;DHT22;2601;50.224;10.126;2023-05-02T13:27:26;16.60;94.90
5164;DHT22;2601;50.224;10.126;2023-05-02T13:29:52;16.60;94.90
5164;DHT22;2601;50.224;10.126;2023-05-02T13:32:18;16.60;94.90
5164;DHT22;2601;50.224;10.126;2023-05-02T13:34:44;16.60;94.80
5164;DHT22;2601;50.224;10.126;2023-05-02T13:37:09;16.60;94.90
5164;DHT22;2601;50.224;10.126;2023-05-02T13:39:35;16.60;94.80
5164;DHT22;2601;50.224;10.126;2023-05-02T13:42:01;16.60;94.80
5164;DHT22;2601;50.224;10.126;2023-05-02T13:44:30;16.60;94.90
5164;DHT22;2601;50.224;10.126;2023-05-02T13:46:56;16.60;95.10
5164;DHT22;2601;50.224;10.126;2023-05-02T13:49:21;16.60;94.80
5164;DHT22;2601;50.224;10.126;2023-05-02T13:51:47;16.60;94.80
5164;DHT22;2601;50.224;10.126;2023-05-02T13:54:13;16.60;94.80
5164;DHT22;2601;50.224;10.126;2023-05-02T13:56:39;16.60;94.80
5164;DHT22;2601;50.224;10.126;2023-05-02T13:59:06;16.60;94.80
5164;DHT22;2601;50.224;10.126;2023-05-02T14:01:31;16.60;94.80
5164;DHT22;2601;50.224;10.126;2023-05-02T14:03:57;16.60;94.80
5164;DHT22;2601;50.224;10.126;2023-05-02T14:06:23;16.60;94.70
5164;DHT22;2601;50.224;10.126;2023-05-02T14:08:48;16.60;94.80
5164;DHT22;2601;50.224;10.126;2023-05-02T14:11:15;16.60;94.80
5164;DHT22;2601;50.224;10.126;2023-05-02T14:13:41;16.60;94.70
5164;DHT22;2601;50.224;10.126;2023-05-02T14:16:07;16.60;94.70
5164;DHT22;2601;50.224;10.126;2023-05-02T14:18:32;16.70;94.80
5164;DHT22;2601;50.224;10.126;2023-05-02T14:20:58;16.60;94.70
5164;DHT22;2601;50.224;10.126;2023-05-02T14:23:25;16.70;94.70
5164;DHT22;2601;50.224;10.126;2023-05-02T14:25:52;16.70;94.70
5164;DHT22;2601;50.224;10.126;2023-05-02T14:28:18;16.60;94.70
5164;DHT22;2601;50.224;10.126;2023-05-02T14:30:44;16.60;94.70
5164;DHT22;2601;50.224;10.126;2023-05-02T14:33:09;16.60;94.70
5164;DHT22;2601;50.224;10.126;2023-05-02T14:35:35;16.60;94.70
5164;DHT22;2601;50.224;10.126;2023-05-02T14:38:01;16.70;94.80
5164;DHT22;2601;50.224;10.126;2023-05-02T14:40:27;16.60;94.70
5164;DHT22;2601;50.224;10.126;2023-05-02T14:42:52;16.70;94.80
5164;DHT22;2601;50.224;10.126;2023-05-02T14:45:18;16.70;94.80
5164;DHT22;2601;50.224;10.126;2023-05-02T14:47:43;16.60;94.70
5164;DHT22;2601;50.224;10.126;2023-05-02T14:50:09;16.70;94.90
5164;DHT22;2601;50.224;10.126;2023-05-02T14:52:35;16.60;94.80
5164;DHT22;2601;50.224;10.126;2023-05-02T14:55:01;16.60;94.80
5164;DHT22;2601;50.224;10.126;2023-05-02T14:57:27;16.70;94.80
5164;DHT22;2601;50.224;10.126;2023-05-02T14:59:53;16.60;94.80
5164;DHT22;2601;50.224;10.126;2023-05-02T15:02:18;16.60;94.80
5164;DHT22;2601;50.224;10.126;2023-05-02T15:04:44;16.60;94.90
5164;DHT22;2601;50.224;10.126;2023-05-02T15:07:09;16.60;94.80
5164;DHT22;2601;50.224;10.126;2023-05-02T15:09:35;16.70;94.90
5164;DHT22;2601;50.224;10.126;2023-05-02T15:12:01;16.60;94.80
5164;DHT22;2601;50.224;10.126;2023-05-02T15:14:29;16.60;94.80
5164;DHT22;2601;50.224;10.126;2023-05-02T15:16:55;16.60;94.80
5164;DHT22;2601;50.224;10.126;2023-05-02T15:19:20;16.60;94.90
5164;DHT22;2601;50.224;10.126;2023-05-02T15:21:48;16.70;94.90
5164;DHT22;2601;50.224;10.126;2023-05-02T15:24:14;16.60;94.90
5164;DHT22;2601;50.224;10.126;2023-05-02T15:26:40;16.60;94.80
5164;DHT22;2601;50.224;10.126;2023-05-02T15:29:05;16.70;94.90
5164;DHT22;2601;50.224;10.126;2023-05-02T15:31:31;16.70;94.90
5164;DHT22;2601;50.224;10.126;2023-05-02T15:33:58;16.60;94.90
5164;DHT22;2601;50.224;10.126;2023-05-02T15:36:27;16.60;94.90
5164;DHT22;2601;50.224;10.126;2023-05-02T15:38:57;16.60;94.80
5164;DHT22;2601;50.224;10.126;2023-05-02T15:41:24;16.70;94.90
5164;DHT22;2601;50.224;10.126;2023-05-02T15:43:52;16.70;94.90
5164;DHT22;2601;50.224;10.126;2023-05-02T15:46:18;16.60;94.90
5164;DHT22;2601;50.224;10.126;2023-05-02T15:48:43;16.70;94.90
5164;DHT22;2601;50.224;10.126;2023-05-02T15:51:09;16.60;94.80
5164;DHT22;2601;50.224;10.126;2023-05-02T15:53:38;16.60;94.80
5164;DHT22;2601;50.224;10.126;2023-05-02T15:56:12;16.70;94.90
5164;DHT22;2601;50.224;10.126;2023-05-02T15:58:39;16.70;94.90
5164;DHT22;2601;50.224;10.126;2023-05-02T16:01:05;16.70;94.90
5164;DHT22;2601;50.224;10.126;2023-05-02T16:03:31;16.60;94.80
5164;DHT22;2601;50.224;10.126;2023-05-02T16:05:58;16.60;94.80
5164;DHT22;2601;50.224;10.126;2023-05-02T16:08:27;16.70;94.80
5164;DHT22;2601;50.224;10.126;2023-05-02T16:10:53;16.70;94.80
5164;DHT22;2601;50.224;10.126;2023-05-02T16:13:19;16.70;94.80
5164;DHT22;2601;50.224;10.126;2023-05-02T16:15:45;16.70;94.70
5164;DHT22;2601;50.224;10.126;2023-05-02T16:18:16;16.70;94.80
5164;DHT22;2601;50.224;10.126;2023-05-02T16:20:42;16.70;94.70
5164;DHT22;2601;50.224;10.126;2023-05-02T16:23:07;16.70;94.80
5164;DHT22;2601;50.224;10.126;2023-05-02T16:25:33;16.70;94.70
5164;DHT22;2601;50.224;10.126;2023-05-02T16:27:59;16.70;94.80
5164;DHT22;2601;50.224;10.126;2023-05-02T16:30:24;16.70;94.80
5164;DHT22;2601;50.224;10.126;2023-05-02T16:32:51;16.70;94.70
5164;DHT22;2601;50.224;10.126;2023-05-02T16:35:17;16.70;94.70